Time;durP1;ratioP1;P1;durP2;ratioP2;P2;SDS_P1;SDS_P2;PMS_P1;PMS_P2;Temp;Humidity;BMP_temperature;BMP_pressure;BME280_temperature;BME280_humidity;BME280_pressure;Samples;Min_cycle;Max_cycle;Signal;HPM_P1;HPM_P2
2024/01/01 00:00:14;;;;;;;37.85;25.50;;;8.30;99.90;;;;;;5050099;28;20045;-60
2024/01/01 00:02:40;;;;;;;31.75;21.50;;;8.30;99.90;;;;;;5030296;28;20512;-59
2024/01/01 00:05:07;;;;;;;30.20;21.48;;;8.20;99.90;;;;;;5015743;28;20056;-60
2024/01/01 00:07:32;;;;;;;34.38;22.00;;;8.30;99.90;;;;;;5013486;28;20051;-60
2024/01/01 00:09:58;;;;;;;31.17;19.63;;;8.30;99.90;;;;;;5030618;28;20049;-61
2024/01/01 00:12:24;;;;;;;42.75;22.25;;;8.30;99.90;;;;;;5030205;28;20048;-61
2024/01/01 00:14:49;;;;;;;30.20;19.88;;;8.30;99.90;;;;;;5015004;28;20045;-58
2024/01/01 00:17:15;;;;;;;29.55;18.23;;;8.20;99.90;;;;;;5015396;28;20048;-61
2024/01/01 00:19:41;;;;;;;16.63;11.57;;;8.20;99.90;;;;;;5015073;28;20036;-61
2024/01/01 00:22:06;;;;;;;23.30;11.43;;;8.20;99.90;;;;;;5014240;28;20055;-60
2024/01/01 00:24:32;;;;;;;16.23;9.23;;;8.10;99.90;;;;;;5011959;28;20049;-60
2024/01/01 00:26:58;;;;;;;14.77;7.53;;;8.10;99.90;;;;;;5031911;28;20383;-60
2024/01/01 00:29:24;;;;;;;11.20;5.78;;;8.00;99.90;;;;;;5030752;28;20044;-61
2024/01/01 00:31:51;;;;;;;10.80;5.10;;;8.00;99.90;;;;;;4980700;28;20049;-61
2024/01/01 00:34:17;;;;;;;10.07;4.22;;;8.00;99.90;;;;;;5016162;28;20041;-60
2024/01/01 00:36:42;;;;;;;7.28;3.47;;;8.00;99.90;;;;;;5029188;28;20523;-61
2024/01/01 00:39:09;;;;;;;7.40;3.10;;;8.00;99.90;;;;;;5017032;28;20425;-60
2024/01/01 00:41:36;;;;;;;6.57;2.95;;;8.00;99.90;;;;;;5030478;28;20049;-60
2024/01/01 00:44:03;;;;;;;9.38;4.00;;;8.00;99.90;;;;;;5030145;28;20033;-60
2024/01/01 00:46:29;;;;;;;9.05;4.45;;;8.00;99.90;;;;;;5016350;28;20045;-61
2024/01/01 00:48:55;;;;;;;13.10;6.32;;;8.00;99.90;;;;;;5028845;28;20055;-60
2024/01/01 00:51:20;;;;;;;17.02;10.02;;;8.10;99.90;;;;;;5032276;28;20490;-61
2024/01/01 00:53:46;;;;;;;21.48;12.68;;;8.10;99.90;;;;;;5013166;28;20502;-60
2024/01/01 00:56:12;;;;;;;45.55;31.98;;;8.10;99.90;;;;;;5012398;28;20106;-60
2024/01/01 00:58:38;;;;;;;26.23;16.67;;;8.10;99.90;;;;;;5002198;28;20072;-60
2024/01/01 01:01:04;;;;;;;31.58;18.85;;;8.10;99.90;;;;;;5021702;28;20046;-60
2024/01/01 01:03:31;;;;;;;33.60;21.60;;;8.10;99.90;;;;;;5024128;28;20049;-61
2024/01/01 01:05:57;;;;;;;34.80;21.92;;;8.10;99.90;;;;;;5022330;28;20055;-61
2024/01/01 01:08:23;;;;;;;44.00;25.42;;;8.10;99.90;;;;;;5023071;28;20045;-63
2024/01/01 01:10:49;;;;;;;45.83;27.38;;;8.10;99.90;;;;;;5005411;28;20539;-62
2024/01/01 01:13:15;;;;;;;38.35;25.95;;;8.10;99.90;;;;;;5010643;28;20049;-62
2024/01/01 01:15:41;;;;;;;48.50;30.02;;;8.10;99.90;;;;;;5006432;28;20034;-62
2024/01/01 01:18:06;;;;;;;47.63;30.48;;;8.00;99.90;;;;;;5021524;28;20214;-61
2024/01/01 01:20:32;;;;;;;50.38;30.77;;;8.10;99.90;;;;;;5023756;28;20029;-63
2024/01/01 01:22:58;;;;;;;49.40;32.30;;;8.00;99.90;;;;;;5029026;28;20061;-63
2024/01/01 01:25:24;;;;;;;47.30;32.38;;;8.10;99.90;;;;;;5028026;28;20045;-62
2024/01/01 01:27:50;;;;;;;53.33;33.97;;;8.10;99.90;;;;;;5026769;28;20518;-62
2024/01/01 01:30:16;;;;;;;51.97;35.60;;;8.10;99.90;;;;;;5021870;28;20052;-62
2024/01/01 01:32:42;;;;;;;56.10;34.50;;;8.10;99.90;;;;;;5034818;28;20041;-62
2024/01/01 01:35:08;;;;;;;58.30;35.45;;;8.10;99.90;;;;;;5006318;28;20095;-62
2024/01/01 01:37:34;;;;;;;46.85;32.72;;;8.10;99.90;;;;;;5036321;28;20371;-63
2024/01/01 01:40:00;;;;;;;49.22;33.50;;;8.10;99.90;;;;;;5025337;28;20055;-62
2024/01/01 01:42:25;;;;;;;55.25;35.17;;;8.10;99.90;;;;;;5022728;28;21875;-63
2024/01/01 01:44:51;;;;;;;52.80;34.83;;;8.10;99.90;;;;;;5025339;28;20049;-62
2024/01/01 01:47:17;;;;;;;45.75;34.25;;;8.10;99.90;;;;;;5022875;28;20045;-62
2024/01/01 01:49:43;;;;;;;50.92;34.88;;;8.10;99.90;;;;;;5017878;28;20123;-62
2024/01/01 01:52:10;;;;;;;50.75;34.58;;;8.10;99.90;;;;;;5006756;28;20037;-62
2024/01/01 01:54:36;;;;;;;53.72;36.20;;;8.10;99.90;;;;;;5018079;28;20518;-62
2024/01/01 01:57:04;;;;;;;58.55;36.70;;;8.10;99.90;;;;;;5004283;28;20068;-62
2024/01/01 01:59:30;;;;;;;54.45;35.22;;;8.10;99.90;;;;;;5021514;28;20045;-62
2024/01/01 02:01:57;;;;;;;59.60;38.25;;;8.10;99.90;;;;;;5019229;28;20061;-62
2024/01/01 02:04:24;;;;;;;61.65;37.25;;;8.10;99.90;;;;;;5028454;28;20394;-62
2024/01/01 02:06:50;;;;;;;53.25;38.33;;;8.10;99.90;;;;;;5020156;28;20056;-61
2024/01/01 02:09:16;;;;;;;56.38;38.35;;;8.10;99.90;;;;;;5016963;28;20037;-62
2024/01/01 02:11:42;;;;;;;62.38;39.92;;;8.10;99.90;;;;;;5021644;28;20552;-63
2024/01/01 02:14:14;;;;;;;50.83;34.97;;;8.00;99.90;;;;;;5019653;28;20442;-62
2024/01/01 02:16:40;;;;;;;50.90;36.03;;;8.00;99.90;;;;;;5008194;28;20041;-62
2024/01/01 02:19:16;;;;;;;57.90;34.55;;;8.00;99.90;;;;;;5023652;28;20585;-62
2024/01/01 02:21:42;;;;;;;50.45;34.20;;;7.90;99.90;;;;;;5017663;28;20055;-62
2024/01/01 02:24:08;;;;;;;51.95;33.03;;;8.00;99.90;;;;;;5014556;28;20049;-62
2024/01/01 02:26:34;;;;;;;49.65;31.30;;;7.90;99.90;;;;;;5026436;28;20032;-61
2024/01/01 02:29:00;;;;;;;50.55;30.00;;;7.90;99.90;;;;;;5008281;28;20048;-62
2024/01/01 02:31:26;;;;;;;47.03;29.13;;;7.90;99.90;;;;;;5020582;28;20434;-63
2024/01/01 02:33:51;;;;;;;43.60;27.27;;;7.90;99.90;;;;;;5005638;28;20065;-62
2024/01/01 02:36:18;;;;;;;43.97;27.80;;;7.80;99.90;;;;;;5034330;28;20037;-62
2024/01/01 02:38:44;;;;;;;35.08;24.83;;;7.90;99.90;;;;;;5027237;28;20352;-60
2024/01/01 02:41:10;;;;;;;37.30;24.02;;;7.80;99.90;;;;;;5019717;28;20048;-61
2024/01/01 02:43:35;;;;;;;38.42;23.98;;;7.80;99.90;;;;;;4984304;28;20496;-62
2024/01/01 02:46:01;;;;;;;35.78;21.80;;;7.80;99.90;;;;;;5026386;28;20044;-63
2024/01/01 02:48:27;;;;;;;31.67;20.08;;;7.80;99.90;;;;;;5002423;28;20033;-63
2024/01/01 02:50:53;;;;;;;33.25;21.23;;;7.80;99.90;;;;;;5017275;28;20139;-63
2024/01/01 02:53:19;;;;;;;32.80;20.45;;;7.80;99.90;;;;;;5021875;28;20613;-61
2024/01/01 02:55:45;;;;;;;31.88;20.83;;;7.80;99.90;;;;;;5019691;28;20045;-62
2024/01/01 02:58:10;;;;;;;31.20;19.40;;;7.80;99.90;;;;;;5005227;28;20437;-62
2024/01/01 03:00:36;;;;;;;25.73;17.30;;;7.80;99.90;;;;;;5021663;28;20037;-61
2024/01/01 03:03:03;;;;;;;33.70;18.10;;;7.80;99.90;;;;;;5026239;28;20033;-60
2024/01/01 03:05:29;;;;;;;28.45;15.77;;;7.80;99.90;;;;;;5023640;28;20045;-63
2024/01/01 03:07:54;;;;;;;32.53;18.02;;;7.80;99.90;;;;;;5023753;28;20397;-62
2024/01/01 03:10:20;;;;;;;29.67;18.10;;;7.80;99.90;;;;;;5024123;28;20468;-63
2024/01/01 03:12:46;;;;;;;28.98;15.98;;;7.80;99.90;;;;;;5017327;28;20032;-62
2024/01/01 03:15:12;;;;;;;24.00;14.75;;;7.80;99.90;;;;;;5003535;28;20154;-64
2024/01/01 03:17:38;;;;;;;32.22;15.75;;;7.80;99.90;;;;;;5037580;28;20045;-63
2024/01/01 03:20:04;;;;;;;27.08;14.90;;;7.80;99.90;;;;;;5020328;28;20045;-62
2024/01/01 03:22:30;;;;;;;25.60;15.02;;;7.80;99.90;;;;;;5001541;28;20045;-62
2024/01/01 03:24:56;;;;;;;22.85;13.93;;;7.80;99.90;;;;;;5023418;28;20040;-63
2024/01/01 03:27:22;;;;;;;29.17;13.38;;;7.80;99.90;;;;;;5018973;28;20098;-60
2024/01/01 03:29:48;;;;;;;25.98;13.25;;;7.80;99.90;;;;;;5002249;28;20655;-62
2024/01/01 03:32:14;;;;;;;20.08;11.93;;;7.70;99.90;;;;;;5026248;28;20143;-61
2024/01/01 03:34:40;;;;;;;22.83;12.60;;;7.80;99.90;;;;;;5008574;28;20687;-61
2024/01/01 03:37:06;;;;;;;24.17;12.38;;;7.70;99.90;;;;;;5016863;28;20036;-62
2024/01/01 03:39:31;;;;;;;22.90;11.45;;;7.70;99.90;;;;;;5024584;28;20527;-62
2024/01/01 03:41:57;;;;;;;18.75;10.73;;;7.70;99.90;;;;;;4998325;28;20037;-62
2024/01/01 03:44:23;;;;;;;18.38;10.23;;;7.80;99.90;;;;;;5022994;28;20106;-63
2024/01/01 03:46:48;;;;;;;22.75;10.43;;;7.80;99.90;;;;;;5011281;28;20680;-62
2024/01/01 03:49:14;;;;;;;18.23;9.07;;;7.80;99.90;;;;;;5021335;28;20068;-61
2024/01/01 03:51:40;;;;;;;18.05;9.57;;;7.80;99.90;;;;;;5029558;28;20040;-62
2024/01/01 03:54:05;;;;;;;17.25;8.20;;;7.80;99.90;;;;;;5011249;28;20036;-62
2024/01/01 03:56:31;;;;;;;15.15;7.90;;;7.80;99.90;;;;;;5019004;28;20136;-62
2024/01/01 03:58:57;;;;;;;19.95;7.72;;;7.80;99.90;;;;;;5021048;28;20418;-62
2024/01/01 04:01:23;;;;;;;14.40;7.38;;;7.80;99.90;;;;;;5022416;28;20041;-63
2024/01/01 04:03:48;;;;;;;17.65;7.63;;;7.80;99.90;;;;;;5007447;28;20077;-62
2024/01/01 04:06:14;;;;;;;18.83;7.50;;;7.80;99.90;;;;;;5022381;28;20452;-62
2024/01/01 04:08:40;;;;;;;14.30;6.15;;;7.80;99.90;;;;;;5006094;28;20429;-62
2024/01/01 04:11:05;;;;;;;18.65;8.23;;;7.80;99.90;;;;;;5035392;28;20041;-62
2024/01/01 04:13:31;;;;;;;14.75;6.43;;;7.80;99.90;;;;;;5020085;28;20045;-62
2024/01/01 04:15:57;;;;;;;17.83;7.20;;;7.70;99.90;;;;;;5025969;28;20103;-63
2024/01/01 04:18:23;;;;;;;20.13;7.72;;;7.70;99.90;;;;;;5029963;28;20033;-64
2024/01/01 04:20:49;;;;;;;14.55;6.38;;;7.70;99.90;;;;;;5018077;28;20390;-63
2024/01/01 04:23:15;;;;;;;14.38;6.53;;;7.70;99.90;;;;;;5020781;28;20123;-61
2024/01/01 04:25:41;;;;;;;16.58;6.32;;;7.70;99.90;;;;;;4985569;28;20041;-62
2024/01/01 04:28:07;;;;;;;14.23;6.43;;;7.70;99.90;;;;;;5024322;28;20048;-61
2024/01/01 04:30:32;;;;;;;12.55;5.32;;;7.70;99.90;;;;;;5021779;28;20044;-62
2024/01/01 04:32:58;;;;;;;13.38;6.43;;;7.70;99.90;;;;;;5026062;28;20045;-63
2024/01/01 04:35:24;;;;;;;13.32;5.75;;;7.70;99.90;;;;;;5011881;28;20532;-62
2024/01/01 04:37:50;;;;;;;16.02;6.32;;;7.70;99.90;;;;;;5023010;28;22223;-62
2024/01/01 04:40:16;;;;;;;10.50;6.15;;;7.70;99.90;;;;;;5017843;28;20041;-62
2024/01/01 04:42:42;;;;;;;15.07;5.75;;;7.70;99.90;;;;;;5021033;28;20080;-60
2024/01/01 04:45:09;;;;;;;15.48;6.05;;;7.70;99.90;;;;;;5009749;28;20032;-63
2024/01/01 04:47:34;;;;;;;10.77;5.25;;;7.70;99.90;;;;;;5025456;28;20060;-61
2024/01/01 04:50:00;;;;;;;11.60;5.15;;;7.70;99.90;;;;;;5010148;28;20045;-62
2024/01/01 04:52:26;;;;;;;11.52;4.65;;;7.70;99.90;;;;;;5022868;28;20560;-61
2024/01/01 04:54:56;;;;;;;12.13;4.97;;;7.70;99.90;;;;;;5022862;28;20041;-63
2024/01/01 04:57:21;;;;;;;14.48;5.32;;;7.70;99.90;;;;;;5009985;28;20037;-63
2024/01/01 04:59:47;;;;;;;12.13;5.13;;;7.60;99.90;;;;;;5021912;28;20045;-63
2024/01/01 05:02:15;;;;;;;13.88;4.90;;;7.70;99.90;;;;;;5021815;28;20140;-62
2024/01/01 05:04:40;;;;;;;19.30;6.30;;;7.70;99.90;;;;;;5023426;28;20087;-63
2024/01/01 05:07:06;;;;;;;13.48;5.00;;;7.60;99.90;;;;;;5021903;28;20433;-63
2024/01/01 05:09:32;;;;;;;9.00;3.90;;;7.70;99.90;;;;;;5025990;28;20504;-63
2024/01/01 05:11:58;;;;;;;11.93;4.97;;;7.70;99.90;;;;;;5032560;28;20063;-63
2024/01/01 05:14:24;;;;;;;15.55;5.57;;;7.70;99.90;;;;;;5023714;28;20049;-61
2024/01/01 05:16:50;;;;;;;10.77;4.07;;;7.70;99.90;;;;;;5025169;28;20052;-62
2024/01/01 05:19:16;;;;;;;9.27;3.25;;;7.70;99.90;;;;;;5035232;28;20029;-63
2024/01/01 05:21:42;;;;;;;7.72;3.38;;;7.70;99.90;;;;;;5010463;28;20059;-62
2024/01/01 05:24:08;;;;;;;9.63;2.95;;;7.70;99.90;;;;;;5027268;28;20041;-62
2024/01/01 05:26:33;;;;;;;8.13;2.70;;;7.60;99.90;;;;;;5019947;28;20119;-63
2024/01/01 05:28:59;;;;;;;4.50;2.08;;;7.60;99.90;;;;;;5028063;28;20140;-62
2024/01/01 05:31:25;;;;;;;7.15;2.20;;;7.60;99.90;;;;;;5017678;28;20552;-62
2024/01/01 05:33:50;;;;;;;7.30;1.77;;;7.60;99.90;;;;;;5005808;28;20041;-62
2024/01/01 05:36:16;;;;;;;5.88;1.52;;;7.60;99.90;;;;;;5008310;28;20037;-63
2024/01/01 05:38:42;;;;;;;6.68;2.00;;;7.60;99.90;;;;;;5027859;28;20387;-62
2024/01/01 05:41:11;;;;;;;7.85;2.70;;;7.60;99.90;;;;;;5028294;28;20397;-62
2024/01/01 05:43:37;;;;;;;16.55;3.20;;;7.70;99.90;;;;;;4991703;28;20095;-63
2024/01/01 05:46:03;;;;;;;10.90;3.47;;;7.80;99.90;;;;;;5007220;28;20049;-63
2024/01/01 05:48:28;;;;;;;9.23;3.10;;;7.80;99.90;;;;;;5022536;28;20300;-63
2024/01/01 05:50:54;;;;;;;10.20;3.13;;;7.80;99.90;;;;;;5005592;28;20132;-63
2024/01/01 05:53:20;;;;;;;8.23;2.58;;;7.80;99.90;;;;;;5033544;28;20037;-63
2024/01/01 05:55:46;;;;;;;11.30;3.05;;;7.80;99.90;;;;;;5009209;28;20061;-63
2024/01/01 05:58:12;;;;;;;9.45;2.60;;;7.80;99.90;;;;;;5023308;28;20594;-63
2024/01/01 06:00:39;;;;;;;8.60;2.53;;;7.80;99.90;;;;;;5021040;28;20554;-63
2024/01/01 06:03:05;;;;;;;8.70;2.85;;;7.80;99.90;;;;;;5006097;28;20068;-63
2024/01/01 06:05:37;;;;;;;9.98;2.75;;;7.80;99.90;;;;;;5039697;28;20040;-63
2024/01/01 06:08:03;;;;;;;9.70;2.55;;;7.80;99.90;;;;;;5041658;28;20055;-63
2024/01/01 06:10:30;;;;;;;12.68;3.17;;;7.80;99.90;;;;;;5025925;28;20417;-63
2024/01/01 06:12:56;;;;;;;12.40;3.20;;;7.90;99.90;;;;;;5029284;28;20482;-63
2024/01/01 06:15:23;;;;;;;13.70;3.42;;;7.90;99.90;;;;;;5044838;28;20048;-63
2024/01/01 06:17:50;;;;;;;14.55;3.92;;;7.90;99.90;;;;;;5026205;28;20094;-63
2024/01/01 06:20:16;;;;;;;13.85;3.58;;;7.90;99.90;;;;;;5026962;28;20346;-63
2024/01/01 06:22:43;;;;;;;14.13;3.58;;;7.90;99.90;;;;;;5007060;28;20037;-62
2024/01/01 06:25:10;;;;;;;12.70;3.40;;;7.90;99.90;;;;;;5026462;28;20040;-63
2024/01/01 06:27:36;;;;;;;18.75;5.00;;;7.90;99.90;;;;;;5025073;28;20464;-63
2024/01/01 06:30:03;;;;;;;13.00;3.42;;;7.90;99.90;;;;;;5027063;28;20057;-63
2024/01/01 06:32:29;;;;;;;14.93;3.95;;;7.90;99.90;;;;;;5023264;28;20489;-63
2024/01/01 06:34:55;;;;;;;20.63;4.30;;;8.00;99.90;;;;;;5029592;28;20043;-63
2024/01/01 06:37:20;;;;;;;18.50;4.28;;;8.00;99.90;;;;;;5022917;28;20061;-63
2024/01/01 06:39:46;;;;;;;16.85;4.53;;;8.00;99.90;;;;;;5017262;28;20047;-63
2024/01/01 06:42:12;;;;;;;15.23;4.00;;;8.00;99.90;;;;;;5025320;28;20084;-63
2024/01/01 06:44:37;;;;;;;14.60;3.83;;;8.00;99.90;;;;;;5008614;28;20421;-62
2024/01/01 06:47:04;;;;;;;8.57;1.77;;;8.00;99.90;;;;;;4996850;28;20060;-62
2024/01/01 06:49:30;;;;;;;8.48;1.42;;;7.90;99.90;;;;;;5010824;28;20049;-63
2024/01/01 06:51:55;;;;;;;1.83;0.70;;;7.70;99.90;;;;;;5008174;28;20091;-63
2024/01/01 06:54:21;;;;;;;2.17;0.60;;;7.50;99.90;;;;;;5023787;28;20045;-62
2024/01/01 06:56:47;;;;;;;2.40;0.55;;;7.40;99.90;;;;;;5023096;28;20072;-62
2024/01/01 06:59:15;;;;;;;4.93;0.63;;;7.30;99.90;;;;;;5009339;28;20512;-62
2024/01/01 07:01:43;;;;;;;2.33;0.68;;;7.40;99.90;;;;;;5031844;28;20097;-63
2024/01/01 07:04:11;;;;;;;2.55;0.40;;;7.30;99.90;;;;;;5023586;28;20575;-62
2024/01/01 07:06:39;;;;;;;4.03;0.70;;;7.30;99.90;;;;;;5040672;28;20037;-62
2024/01/01 07:09:05;;;;;;;3.05;0.50;;;7.30;99.90;;;;;;5019966;28;20045;-62
2024/01/01 07:11:31;;;;;;;2.20;0.80;;;7.30;99.90;;;;;;5022831;28;20177;-63
2024/01/01 07:13:57;;;;;;;3.67;0.68;;;7.30;99.90;;;;;;5027560;28;20468;-63
2024/01/01 07:16:23;;;;;;;4.50;0.77;;;7.30;99.90;;;;;;5011250;28;20045;-63
2024/01/01 07:18:48;;;;;;;6.15;1.20;;;7.30;99.90;;;;;;5023057;28;20508;-63
2024/01/01 07:21:14;;;;;;;6.63;1.20;;;7.30;99.90;;;;;;5006172;28;20048;-63
2024/01/01 07:23:40;;;;;;;3.97;0.80;;;7.30;99.90;;;;;;5017674;28;20045;-62
2024/01/01 07:26:06;;;;;;;6.20;0.90;;;7.40;99.90;;;;;;5006744;28;20044;-63
2024/01/01 07:28:32;;;;;;;3.80;1.00;;;7.40;99.90;;;;;;5043286;28;20405;-63
2024/01/01 07:30:59;;;;;;;9.30;1.00;;;7.30;99.90;;;;;;5024452;28;20040;-63
2024/01/01 07:33:26;;;;;;;4.20;1.00;;;7.40;99.90;;;;;;5009609;28;20246;-63
2024/01/01 07:35:52;;;;;;;5.63;1.00;;;7.40;99.90;;;;;;5007912;28;21580;-63
2024/01/01 07:38:17;;;;;;;8.57;1.60;;;7.40;99.90;;;;;;5027431;28;20123;-63
2024/01/01 07:40:43;;;;;;;6.15;1.30;;;7.50;99.90;;;;;;5039576;28;20398;-63
2024/01/01 07:43:09;;;;;;;3.72;1.02;;;7.50;99.90;;;;;;5009021;28;20060;-63
2024/01/01 07:45:35;;;;;;;5.30;1.15;;;7.50;99.90;;;;;;5025883;28;20045;-63
2024/01/01 07:48:01;;;;;;;8.48;1.92;;;7.50;99.90;;;;;;5036696;28;20095;-63
2024/01/01 07:50:27;;;;;;;9.52;1.50;;;7.50;99.90;;;;;;5029179;28;20513;-65
2024/01/01 07:52:52;;;;;;;7.32;1.88;;;7.50;99.90;;;;;;5024826;28;20068;-63
2024/01/01 07:55:18;;;;;;;6.55;1.55;;;7.50;99.90;;;;;;4993103;28;20112;-62
2024/01/01 07:57:46;;;;;;;6.97;1.63;;;7.50;99.90;;;;;;5006603;28;20045;-61
2024/01/01 08:00:12;;;;;;;12.68;2.63;;;7.50;99.90;;;;;;5035018;28;20037;-63
2024/01/01 08:02:38;;;;;;;9.52;1.48;;;7.50;99.90;;;;;;5005546;28;20048;-63
2024/01/01 08:05:05;;;;;;;9.25;1.63;;;7.60;99.90;;;;;;5021939;28;20053;-63
2024/01/01 08:07:30;;;;;;;11.30;1.70;;;7.60;99.90;;;;;;5022739;28;20048;-62
2024/01/01 08:09:56;;;;;;;11.68;1.75;;;7.60;99.90;;;;;;5003455;28;20049;-64
2024/01/01 08:12:22;;;;;;;12.38;2.05;;;7.60;99.90;;;;;;5008492;28;20046;-64
2024/01/01 08:14:48;;;;;;;8.50;1.90;;;7.60;99.90;;;;;;5018729;28;20429;-62
2024/01/01 08:17:13;;;;;;;7.60;1.58;;;7.60;99.90;;;;;;5024125;28;20053;-63
2024/01/01 08:19:39;;;;;;;9.05;2.08;;;7.60;99.90;;;;;;5023532;28;20334;-63
2024/01/01 08:22:05;;;;;;;6.43;1.52;;;7.60;99.90;;;;;;5022417;28;20505;-64
2024/01/01 08:24:31;;;;;;;13.27;2.20;;;7.60;99.90;;;;;;5019400;28;20057;-64
2024/01/01 08:26:57;;;;;;;7.00;1.80;;;7.60;99.90;;;;;;5003780;28;20079;-63
2024/01/01 08:29:23;;;;;;;10.55;2.63;;;7.60;99.90;;;;;;5024654;28;20128;-63
2024/01/01 08:31:49;;;;;;;6.88;1.50;;;7.60;99.90;;;;;;5008774;28;20569;-62
2024/01/01 08:34:15;;;;;;;5.47;1.50;;;7.60;99.90;;;;;;5031435;28;20041;-62
2024/01/01 08:36:40;;;;;;;6.13;1.27;;;7.50;99.90;;;;;;5024209;28;20102;-62
2024/01/01 08:39:09;;;;;;;7.50;1.90;;;7.50;99.90;;;;;;5028714;28;20039;-63
2024/01/01 08:41:43;;;;;;;8.93;1.80;;;7.50;99.90;;;;;;5028970;28;20061;-62
2024/01/01 08:44:09;;;;;;;6.72;1.65;;;7.50;99.90;;;;;;5030998;28;20061;-64
2024/01/01 08:46:35;;;;;;;7.65;1.98;;;7.60;99.90;;;;;;5007905;28;20490;-63
2024/01/01 08:49:01;;;;;;;11.20;1.98;;;7.60;99.90;;;;;;5032648;28;20268;-62
2024/01/01 08:51:27;;;;;;;12.27;2.72;;;7.60;99.90;;;;;;5029596;28;20432;-64
2024/01/01 08:53:52;;;;;;;5.50;1.23;;;7.60;99.90;;;;;;5025449;28;20052;-62
2024/01/01 08:56:18;;;;;;;5.60;1.38;;;7.50;99.90;;;;;;4998738;28;20033;-63
2024/01/01 08:58:44;;;;;;;6.53;1.30;;;7.50;99.90;;;;;;5031719;28;20071;-62
2024/01/01 09:01:09;;;;;;;7.43;1.30;;;7.50;99.90;;;;;;5024361;28;20040;-64
2024/01/01 09:03:37;;;;;;;6.10;1.80;;;7.50;99.90;;;;;;5042352;28;20147;-63
2024/01/01 09:06:04;;;;;;;10.63;1.98;;;7.50;99.90;;;;;;5025213;28;20049;-63
2024/01/01 09:08:30;;;;;;;7.97;2.47;;;7.50;99.90;;;;;;5023811;28;20049;-64
2024/01/01 09:10:56;;;;;;;9.73;1.42;;;7.50;99.90;;;;;;5022441;28;20036;-63
2024/01/01 09:13:22;;;;;;;7.45;2.40;;;7.50;99.90;;;;;;5010082;28;20043;-63
2024/01/01 09:15:48;;;;;;;11.73;2.00;;;7.50;99.90;;;;;;5014657;28;20720;-62
2024/01/01 09:18:14;;;;;;;13.77;2.47;;;7.60;99.90;;;;;;5029023;28;20045;-62
2024/01/01 09:20:41;;;;;;;9.20;2.00;;;7.60;99.90;;;;;;5045671;28;20051;-63
2024/01/01 09:23:08;;;;;;;16.08;2.78;;;7.70;99.90;;;;;;5031095;28;20060;-63
2024/01/01 09:25:40;;;;;;;14.40;3.17;;;7.70;99.90;;;;;;5029023;28;20052;-63
2024/01/01 09:28:06;;;;;;;11.05;1.92;;;7.80;99.90;;;;;;5028295;28;20136;-64
2024/01/01 09:30:32;;;;;;;11.50;2.38;;;7.80;99.90;;;;;;5028424;28;20028;-63
2024/01/01 09:32:58;;;;;;;13.68;2.25;;;7.80;99.90;;;;;;5029336;28;20519;-64
2024/01/01 09:35:26;;;;;;;8.90;2.10;;;7.80;99.90;;;;;;5031427;28;20093;-63
2024/01/01 09:37:53;;;;;;;9.82;2.10;;;7.90;99.90;;;;;;5014078;28;20033;-63
2024/01/01 09:40:20;;;;;;;14.93;2.35;;;7.90;99.90;;;;;;5015915;28;20555;-64
2024/01/01 09:42:47;;;;;;;13.18;2.65;;;7.90;99.90;;;;;;5028203;28;20557;-63
2024/01/01 09:45:13;;;;;;;12.15;2.85;;;7.90;99.90;;;;;;5018068;28;20047;-63
2024/01/01 09:47:43;;;;;;;19.60;2.65;;;8.00;99.90;;;;;;5031137;28;20045;-63
2024/01/01 09:50:09;;;;;;;23.75;5.07;;;8.00;99.90;;;;;;5033855;28;20138;-63
2024/01/01 09:52:36;;;;;;;22.83;3.20;;;8.00;99.90;;;;;;5032441;28;20045;-63
2024/01/01 09:55:02;;;;;;;13.05;2.85;;;8.10;99.90;;;;;;5025726;28;20120;-62
2024/01/01 09:57:28;;;;;;;17.45;3.45;;;8.10;99.90;;;;;;5014446;28;20093;-62
2024/01/01 09:59:54;;;;;;;19.40;3.28;;;8.10;99.90;;;;;;5010496;28;20508;-63
2024/01/01 10:02:28;;;;;;;21.83;3.65;;;8.20;99.90;;;;;;5026840;28;20563;-64
2024/01/01 10:05:11;;;;;;;11.00;3.08;;;8.20;99.90;;;;;;5010588;28;20469;-63
2024/01/01 10:07:36;;;;;;;18.17;3.15;;;8.20;99.90;;;;;;5010926;28;20060;-64
2024/01/01 10:10:03;;;;;;;31.35;14.85;;;8.30;99.90;;;;;;5030426;28;20098;-64
2024/01/01 10:12:29;;;;;;;17.60;3.10;;;8.30;99.90;;;;;;5028546;28;20041;-64
2024/01/01 10:14:58;;;;;;;21.08;3.22;;;8.30;99.90;;;;;;5027539;28;20047;-63
2024/01/01 10:17:23;;;;;;;17.60;3.10;;;8.30;99.90;;;;;;5023428;28;20040;-62
2024/01/01 10:19:51;;;;;;;19.08;3.30;;;8.40;99.90;;;;;;5022374;28;20044;-62
2024/01/01 10:22:22;;;;;;;19.98;4.43;;;8.40;99.90;;;;;;5027958;28;20389;-62
2024/01/01 10:24:49;;;;;;;21.10;3.85;;;8.40;99.90;;;;;;5013274;28;20075;-62
2024/01/01 10:27:18;;;;;;;19.80;4.25;;;8.40;99.90;;;;;;5014863;28;20033;-62
2024/01/01 10:29:48;;;;;;;16.17;3.13;;;8.50;99.90;;;;;;5016434;28;20028;-63
2024/01/01 10:32:16;;;;;;;13.80;3.60;;;8.50;99.90;;;;;;5030147;28;20036;-63
2024/01/01 10:34:45;;;;;;;22.23;3.70;;;8.50;99.90;;;;;;5039231;28;20437;-62
2024/01/01 10:37:12;;;;;;;28.92;4.72;;;8.50;99.90;;;;;;5014146;28;20045;-63
2024/01/01 10:39:39;;;;;;;22.13;3.58;;;8.60;99.90;;;;;;5025905;28;20076;-63
2024/01/01 10:42:06;;;;;;;29.20;9.13;;;8.60;99.90;;;;;;5009193;28;20082;-63
2024/01/01 10:44:31;;;;;;;18.58;5.03;;;8.60;99.90;;;;;;5023748;28;20561;-64
2024/01/01 10:46:58;;;;;;;19.98;3.25;;;8.60;99.90;;;;;;5022271;28;20076;-63
2024/01/01 10:49:30;;;;;;;22.60;3.20;;;8.70;99.90;;;;;;5010423;28;20359;-63
2024/01/01 10:51:55;;;;;;;20.25;3.45;;;8.70;99.90;;;;;;5010872;28;20047;-63
2024/01/01 10:54:39;;;;;;;16.63;2.53;;;8.60;99.90;;;;;;5025877;28;20037;-62
2024/01/01 10:57:17;;;;;;;15.10;2.95;;;8.60;99.90;;;;;;5023320;28;20559;-62
2024/01/01 11:00:01;;;;;;;35.50;19.70;;;8.70;99.90;;;;;;5028598;28;20383;-63
2024/01/01 11:02:27;;;;;;;21.40;3.33;;;8.60;99.90;;;;;;5010666;28;20426;-63
2024/01/01 11:05:10;;;;;;;17.92;3.67;;;8.70;99.90;;;;;;5020672;28;20520;-63
2024/01/01 11:07:54;;;;;;;14.45;2.60;;;8.70;99.90;;;;;;5005458;28;20056;-62
2024/01/01 11:10:36;;;;;;;12.00;2.95;;;8.70;99.90;;;;;;5029416;28;20058;-62
2024/01/01 11:13:09;;;;;;;24.63;4.63;;;8.60;99.90;;;;;;5023656;28;20053;-62
2024/01/01 11:15:45;;;;;;;11.15;2.30;;;8.60;99.90;;;;;;5027785;28;20041;-62
2024/01/01 11:18:18;;;;;;;12.95;2.63;;;8.60;99.90;;;;;;5023762;28;20033;-62
2024/01/01 11:20:52;;;;;;;9.40;1.80;;;8.40;99.90;;;;;;5010402;28;20135;-61
2024/01/01 11:23:43;;;;;;;12.18;3.85;;;8.40;99.90;;;;;;5029060;28;20509;-63
2024/01/01 11:26:30;;;;;;;12.60;4.45;;;8.40;99.90;;;;;;5029292;28;20064;-63
2024/01/01 11:28:58;;;;;;;16.05;3.35;;;8.40;99.90;;;;;;5047230;23;20048;-61
2024/01/01 11:31:25;;;;;;;17.92;6.45;;;8.50;99.90;;;;;;5029196;28;20032;-61
2024/01/01 11:34:04;;;;;;;19.92;8.77;;;8.50;99.90;;;;;;5040724;28;20084;-61
2024/01/01 11:36:30;;;;;;;14.18;3.70;;;8.50;99.90;;;;;;5044967;28;20123;-60
2024/01/01 11:38:57;;;;;;;17.27;3.60;;;8.50;99.90;;;;;;5042677;28;20090;-61
2024/01/01 11:41:32;;;;;;;23.95;4.00;;;8.50;99.90;;;;;;5038530;28;20077;-61
2024/01/01 11:44:15;;;;;;;22.95;5.03;;;8.60;99.90;;;;;;5010739;28;20044;-61
2024/01/01 11:46:41;;;;;;;13.82;2.60;;;8.60;99.90;;;;;;5038020;28;20074;-61
2024/01/01 11:49:07;;;;;;;16.10;3.45;;;8.60;99.90;;;;;;5029323;28;20102;-61
2024/01/01 11:51:57;;;;;;;13.60;3.25;;;8.60;99.90;;;;;;5024807;28;20032;-61
2024/01/01 11:54:26;;;;;;;12.40;3.25;;;8.70;99.90;;;;;;5028219;28;20073;-61
2024/01/01 11:56:59;;;;;;;12.35;2.70;;;8.60;99.90;;;;;;5038340;28;20133;-61
2024/01/01 11:59:28;;;;;;;10.25;2.50;;;8.70;99.90;;;;;;5037989;28;20034;-61
2024/01/01 12:01:54;;;;;;;15.27;2.80;;;8.70;99.90;;;;;;5032067;28;20056;-61
2024/01/01 12:04:21;;;;;;;9.93;3.03;;;8.70;99.90;;;;;;5029284;28;20948;-61
2024/01/01 12:06:53;;;;;;;14.55;2.88;;;8.70;99.90;;;;;;5033440;28;20040;-61
2024/01/01 12:09:20;;;;;;;16.45;3.25;;;8.60;99.90;;;;;;5024645;28;20040;-61
2024/01/01 12:11:46;;;;;;;12.13;2.42;;;8.70;99.90;;;;;;5030119;28;20489;-61
2024/01/01 12:14:12;;;;;;;15.40;3.70;;;8.70;99.90;;;;;;5028152;28;20047;-61
2024/01/01 12:16:38;;;;;;;20.65;2.70;;;8.70;99.90;;;;;;5024587;28;20128;-61
2024/01/01 12:19:06;;;;;;;13.50;2.45;;;8.70;99.90;;;;;;5020452;28;20214;-61
2024/01/01 12:21:45;;;;;;;13.20;2.33;;;8.70;99.90;;;;;;5041443;28;20041;-61
2024/01/01 12:24:21;;;;;;;12.57;2.58;;;8.70;99.90;;;;;;5031523;28;20383;-61
2024/01/01 12:26:50;;;;;;;11.88;2.60;;;8.80;99.90;;;;;;5029133;28;20105;-61
2024/01/01 12:29:17;;;;;;;17.92;3.00;;;8.80;99.90;;;;;;5037346;28;20105;-61
2024/01/01 12:31:44;;;;;;;16.17;3.17;;;8.80;99.90;;;;;;5023959;28;20124;-61
2024/01/01 12:34:18;;;;;;;18.60;2.90;;;8.80;99.90;;;;;;5011286;28;20114;-61
2024/01/01 12:36:48;;;;;;;43.25;35.35;;;8.70;99.90;;;;;;5013734;28;20041;-61
2024/01/01 12:39:17;;;;;;;11.15;2.83;;;8.70;99.90;;;;;;5026392;28;20059;-61
2024/01/01 12:41:43;;;;;;;18.38;3.28;;;8.70;99.90;;;;;;5020528;28;20067;-61
2024/01/01 12:44:09;;;;;;;15.05;2.70;;;8.70;99.90;;;;;;5011870;28;20051;-61